Terminal Aerodrome Forecast
Issued by NWS Wilmington, NC

Home | Current Version | Previous Version | Text Only | Print | Product List | Glossary On
Versions: 1 2 3 4 5 6 7 8 9 10 11 12 13 14 15 16 17
000
FTUS42 KILM 192300
TAFFLO
TAF
KFLO 192328Z 2000/2024 30006KT P6SM VCSH SCT040 SCT110
     FM200200 VRB03KT P6SM FEW040 SCT100
     FM200600 00000KT 4SM BR FEW012 SCT100
     FM201300 33004KT P6SM SCT015 SCT250
     FM201800 29006KT P6SM VCSH SCT040=

USA.gov is the U.S. government's official web portal to all federal, state and local government web resources and services.